sensor_id;sensor_type;location;lat;lon;timestamp;P1;durP1;ratioP1;P2;durP2;ratioP2
74510;SDS011;62991;50.040;18.400;2023-04-24T00:02:29;11.90;;;5.15;;
74510;SDS011;62991;50.040;18.400;2023-04-24T00:05:30;14.35;;;5.78;;
74510;SDS011;62991;50.040;18.400;2023-04-24T00:08:31;15.10;;;5.05;;
74510;SDS011;62991;50.040;18.400;2023-04-24T00:11:31;12.07;;;6.38;;
74510;SDS011;62991;50.040;18.400;2023-04-24T00:14:32;13.32;;;6.18;;
74510;SDS011;62991;50.040;18.400;2023-04-24T00:17:33;12.88;;;5.97;;
74510;SDS011;62991;50.040;18.400;2023-04-24T00:20:33;11.85;;;5.55;;
74510;SDS011;62991;50.040;18.400;2023-04-24T00:23:35;14.23;;;5.15;;
74510;SDS011;62991;50.040;18.400;2023-04-24T00:26:36;13.88;;;6.03;;
74510;SDS011;62991;50.040;18.400;2023-04-24T00:29:37;10.88;;;5.50;;
74510;SDS011;62991;50.040;18.400;2023-04-24T00:32:37;9.98;;;4.82;;
74510;SDS011;62991;50.040;18.400;2023-04-24T00:35:38;11.73;;;4.93;;
74510;SDS011;62991;50.040;18.400;2023-04-24T00:38:39;8.25;;;4.50;;
74510;SDS011;62991;50.040;18.400;2023-04-24T00:41:39;11.30;;;4.55;;
74510;SDS011;62991;50.040;18.400;2023-04-24T00:44:40;9.57;;;4.35;;
74510;SDS011;62991;50.040;18.400;2023-04-24T00:47:41;9.20;;;4.60;;
74510;SDS011;62991;50.040;18.400;2023-04-24T00:50:42;9.52;;;4.22;;
74510;SDS011;62991;50.040;18.400;2023-04-24T00:53:43;7.57;;;3.58;;
74510;SDS011;62991;50.040;18.400;2023-04-24T00:56:44;11.95;;;3.83;;
74510;SDS011;62991;50.040;18.400;2023-04-24T00:59:45;7.22;;;4.18;;
74510;SDS011;62991;50.040;18.400;2023-04-24T01:02:46;12.13;;;4.93;;
74510;SDS011;62991;50.040;18.400;2023-04-24T01:05:48;7.57;;;3.55;;
74510;SDS011;62991;50.040;18.400;2023-04-24T01:08:49;7.82;;;3.55;;
74510;SDS011;62991;50.040;18.400;2023-04-24T01:11:50;7.95;;;3.55;;
74510;SDS011;62991;50.040;18.400;2023-04-24T01:14:51;7.40;;;3.13;;
74510;SDS011;62991;50.040;18.400;2023-04-24T01:17:51;8.15;;;3.67;;
74510;SDS011;62991;50.040;18.400;2023-04-24T01:21:02;11.63;;;4.03;;
74510;SDS011;62991;50.040;18.400;2023-04-24T01:24:04;5.47;;;3.13;;
74510;SDS011;62991;50.040;18.400;2023-04-24T01:27:06;7.88;;;3.20;;
74510;SDS011;62991;50.040;18.400;2023-04-24T01:30:08;3.97;;;2.55;;
74510;SDS011;62991;50.040;18.400;2023-04-24T01:33:09;6.07;;;3.25;;
74510;SDS011;62991;50.040;18.400;2023-04-24T01:36:10;6.20;;;3.00;;
74510;SDS011;62991;50.040;18.400;2023-04-24T01:39:11;8.43;;;3.17;;
74510;SDS011;62991;50.040;18.400;2023-04-24T01:42:13;5.55;;;3.13;;
74510;SDS011;62991;50.040;18.400;2023-04-24T01:45:14;10.75;;;3.17;;
74510;SDS011;62991;50.040;18.400;2023-04-24T01:48:15;7.22;;;2.92;;
74510;SDS011;62991;50.040;18.400;2023-04-24T01:51:16;6.22;;;3.20;;
74510;SDS011;62991;50.040;18.400;2023-04-24T01:54:17;5.65;;;3.17;;
74510;SDS011;62991;50.040;18.400;2023-04-24T01:57:18;6.30;;;3.50;;
74510;SDS011;62991;50.040;18.400;2023-04-24T02:00:18;6.68;;;3.38;;
74510;SDS011;62991;50.040;18.400;2023-04-24T02:03:19;6.38;;;3.38;;
74510;SDS011;62991;50.040;18.400;2023-04-24T02:06:20;7.07;;;3.38;;
74510;SDS011;62991;50.040;18.400;2023-04-24T02:09:20;12.63;;;3.67;;
74510;SDS011;62991;50.040;18.400;2023-04-24T02:12:21;7.82;;;3.70;;
74510;SDS011;62991;50.040;18.400;2023-04-24T02:15:21;6.55;;;3.95;;
74510;SDS011;62991;50.040;18.400;2023-04-24T02:18:22;5.22;;;3.30;;
74510;SDS011;62991;50.040;18.400;2023-04-24T02:21:23;5.05;;;3.28;;
74510;SDS011;62991;50.040;18.400;2023-04-24T02:24:24;6.80;;;3.67;;
74510;SDS011;62991;50.040;18.400;2023-04-24T02:27:24;7.45;;;3.15;;
74510;SDS011;62991;50.040;18.400;2023-04-24T02:30:25;5.05;;;3.20;;
74510;SDS011;62991;50.040;18.400;2023-04-24T02:33:26;7.93;;;3.42;;
74510;SDS011;62991;50.040;18.400;2023-04-24T02:36:26;10.50;;;4.07;;
74510;SDS011;62991;50.040;18.400;2023-04-24T02:39:27;8.45;;;3.97;;
74510;SDS011;62991;50.040;18.400;2023-04-24T02:42:28;10.10;;;4.35;;
74510;SDS011;62991;50.040;18.400;2023-04-24T02:45:28;10.73;;;4.93;;
74510;SDS011;62991;50.040;18.400;2023-04-24T02:48:29;8.70;;;4.38;;
74510;SDS011;62991;50.040;18.400;2023-04-24T02:51:30;9.50;;;4.70;;
74510;SDS011;62991;50.040;18.400;2023-04-24T02:54:31;9.98;;;4.55;;
74510;SDS011;62991;50.040;18.400;2023-04-24T02:57:31;11.13;;;4.35;;
74510;SDS011;62991;50.040;18.400;2023-04-24T03:00:32;7.20;;;4.18;;
74510;SDS011;62991;50.040;18.400;2023-04-24T03:03:33;8.68;;;4.03;;
74510;SDS011;62991;50.040;18.400;2023-04-24T03:06:33;12.85;;;5.43;;
74510;SDS011;62991;50.040;18.400;2023-04-24T03:09:35;17.58;;;6.68;;
74510;SDS011;62991;50.040;18.400;2023-04-24T03:12:36;7.88;;;5.13;;
74510;SDS011;62991;50.040;18.400;2023-04-24T03:15:36;11.50;;;4.38;;
74510;SDS011;62991;50.040;18.400;2023-04-24T03:18:37;11.07;;;4.32;;
74510;SDS011;62991;50.040;18.400;2023-04-24T03:21:38;10.98;;;3.80;;
74510;SDS011;62991;50.040;18.400;2023-04-24T03:24:40;14.25;;;5.05;;
74510;SDS011;62991;50.040;18.400;2023-04-24T03:27:41;16.05;;;5.22;;
74510;SDS011;62991;50.040;18.400;2023-04-24T03:30:41;11.57;;;4.90;;
74510;SDS011;62991;50.040;18.400;2023-04-24T03:33:42;14.10;;;4.85;;
74510;SDS011;62991;50.040;18.400;2023-04-24T03:36:43;13.48;;;4.65;;
74510;SDS011;62991;50.040;18.400;2023-04-24T03:39:43;9.68;;;4.80;;
74510;SDS011;62991;50.040;18.400;2023-04-24T03:42:44;8.02;;;4.30;;
74510;SDS011;62991;50.040;18.400;2023-04-24T03:45:45;8.85;;;4.05;;
74510;SDS011;62991;50.040;18.400;2023-04-24T03:48:46;16.65;;;6.10;;
74510;SDS011;62991;50.040;18.400;2023-04-24T03:51:46;11.77;;;4.88;;
74510;SDS011;62991;50.040;18.400;2023-04-24T03:54:47;7.80;;;3.38;;
74510;SDS011;62991;50.040;18.400;2023-04-24T03:57:48;7.60;;;3.85;;
74510;SDS011;62991;50.040;18.400;2023-04-24T04:00:48;10.30;;;4.00;;
74510;SDS011;62991;50.040;18.400;2023-04-24T04:03:49;11.27;;;4.28;;
74510;SDS011;62991;50.040;18.400;2023-04-24T04:06:50;13.40;;;5.13;;
74510;SDS011;62991;50.040;18.400;2023-04-24T04:09:51;12.23;;;4.93;;
74510;SDS011;62991;50.040;18.400;2023-04-24T04:12:51;10.80;;;4.40;;
74510;SDS011;62991;50.040;18.400;2023-04-24T04:15:52;9.30;;;4.10;;
74510;SDS011;62991;50.040;18.400;2023-04-24T04:18:53;7.65;;;3.65;;
74510;SDS011;62991;50.040;18.400;2023-04-24T04:21:53;9.57;;;4.25;;
74510;SDS011;62991;50.040;18.400;2023-04-24T04:24:56;6.88;;;3.63;;
74510;SDS011;62991;50.040;18.400;2023-04-24T04:27:57;11.60;;;4.25;;
74510;SDS011;62991;50.040;18.400;2023-04-24T04:30:59;7.10;;;3.55;;
74510;SDS011;62991;50.040;18.400;2023-04-24T04:34:00;8.70;;;3.72;;
74510;SDS011;62991;50.040;18.400;2023-04-24T04:37:01;8.15;;;3.50;;
74510;SDS011;62991;50.040;18.400;2023-04-24T04:40:02;10.13;;;4.25;;
74510;SDS011;62991;50.040;18.400;2023-04-24T04:46:07;10.45;;;5.43;;
74510;SDS011;62991;50.040;18.400;2023-04-24T04:49:08;9.52;;;5.05;;
74510;SDS011;62991;50.040;18.400;2023-04-24T04:52:09;10.55;;;4.38;;
74510;SDS011;62991;50.040;18.400;2023-04-24T04:55:10;10.77;;;4.80;;
74510;SDS011;62991;50.040;18.400;2023-04-24T04:58:13;10.35;;;4.82;;
74510;SDS011;62991;50.040;18.400;2023-04-24T05:01:14;14.52;;;4.80;;
74510;SDS011;62991;50.040;18.400;2023-04-24T05:04:15;8.10;;;4.35;;
74510;SDS011;62991;50.040;18.400;2023-04-24T05:07:15;10.23;;;4.35;;
74510;SDS011;62991;50.040;18.400;2023-04-24T05:10:16;12.50;;;4.65;;
74510;SDS011;62991;50.040;18.400;2023-04-24T05:13:17;15.98;;;5.43;;
74510;SDS011;62991;50.040;18.400;2023-04-24T05:16:17;11.80;;;4.63;;
74510;SDS011;62991;50.040;18.400;2023-04-24T05:19:18;10.50;;;4.22;;
74510;SDS011;62991;50.040;18.400;2023-04-24T05:22:19;11.07;;;4.47;;
74510;SDS011;62991;50.040;18.400;2023-04-24T05:25:20;8.60;;;4.57;;
74510;SDS011;62991;50.040;18.400;2023-04-24T05:28:21;13.20;;;5.18;;
74510;SDS011;62991;50.040;18.400;2023-04-24T05:31:22;10.52;;;4.50;;
74510;SDS011;62991;50.040;18.400;2023-04-24T05:34:23;11.07;;;4.38;;
74510;SDS011;62991;50.040;18.400;2023-04-24T05:37:24;11.40;;;4.63;;
74510;SDS011;62991;50.040;18.400;2023-04-24T05:40:24;11.30;;;4.57;;
74510;SDS011;62991;50.040;18.400;2023-04-24T05:43:25;10.73;;;4.47;;
74510;SDS011;62991;50.040;18.400;2023-04-24T05:46:26;10.43;;;4.03;;
74510;SDS011;62991;50.040;18.400;2023-04-24T05:49:27;7.72;;;3.97;;
74510;SDS011;62991;50.040;18.400;2023-04-24T05:52:27;8.50;;;3.47;;
74510;SDS011;62991;50.040;18.400;2023-04-24T05:55:28;7.18;;;3.65;;
74510;SDS011;62991;50.040;18.400;2023-04-24T05:58:30;9.55;;;4.47;;
74510;SDS011;62991;50.040;18.400;2023-04-24T06:01:31;9.73;;;4.25;;
74510;SDS011;62991;50.040;18.400;2023-04-24T06:04:32;14.85;;;7.50;;
74510;SDS011;62991;50.040;18.400;2023-04-24T06:07:33;21.30;;;7.78;;
74510;SDS011;62991;50.040;18.400;2023-04-24T06:10:34;15.07;;;6.63;;
74510;SDS011;62991;50.040;18.400;2023-04-24T06:13:35;25.27;;;9.43;;
74510;SDS011;62991;50.040;18.400;2023-04-24T06:16:35;27.88;;;10.73;;
74510;SDS011;62991;50.040;18.400;2023-04-24T06:19:36;14.32;;;6.47;;
74510;SDS011;62991;50.040;18.400;2023-04-24T06:22:37;13.88;;;5.45;;
74510;SDS011;62991;50.040;18.400;2023-04-24T06:25:39;11.10;;;5.40;;
74510;SDS011;62991;50.040;18.400;2023-04-24T06:28:40;16.67;;;6.50;;
74510;SDS011;62991;50.040;18.400;2023-04-24T06:31:41;11.98;;;5.07;;
74510;SDS011;62991;50.040;18.400;2023-04-24T06:34:42;12.52;;;4.47;;
74510;SDS011;62991;50.040;18.400;2023-04-24T06:37:43;12.60;;;5.20;;
74510;SDS011;62991;50.040;18.400;2023-04-24T06:40:43;13.00;;;4.47;;
74510;SDS011;62991;50.040;18.400;2023-04-24T06:43:44;9.00;;;4.35;;
74510;SDS011;62991;50.040;18.400;2023-04-24T06:46:45;11.52;;;4.03;;
74510;SDS011;62991;50.040;18.400;2023-04-24T06:49:46;9.32;;;4.32;;
74510;SDS011;62991;50.040;18.400;2023-04-24T06:52:47;11.48;;;4.15;;
74510;SDS011;62991;50.040;18.400;2023-04-24T06:55:47;8.63;;;4.15;;
74510;SDS011;62991;50.040;18.400;2023-04-24T06:58:48;10.25;;;3.88;;
74510;SDS011;62991;50.040;18.400;2023-04-24T07:01:49;10.50;;;5.47;;
74510;SDS011;62991;50.040;18.400;2023-04-24T07:04:51;16.92;;;6.15;;
74510;SDS011;62991;50.040;18.400;2023-04-24T07:07:52;10.88;;;3.88;;
74510;SDS011;62991;50.040;18.400;2023-04-24T07:10:53;12.82;;;4.32;;
74510;SDS011;62991;50.040;18.400;2023-04-24T07:13:54;11.55;;;4.20;;
74510;SDS011;62991;50.040;18.400;2023-04-24T07:16:55;8.05;;;3.97;;
74510;SDS011;62991;50.040;18.400;2023-04-24T07:19:57;7.10;;;3.75;;
74510;SDS011;62991;50.040;18.400;2023-04-24T07:22:57;7.45;;;3.90;;
74510;SDS011;62991;50.040;18.400;2023-04-24T07:25:58;7.10;;;3.83;;
74510;SDS011;62991;50.040;18.400;2023-04-24T07:28:59;8.48;;;3.45;;
74510;SDS011;62991;50.040;18.400;2023-04-24T07:31:59;6.85;;;3.50;;
74510;SDS011;62991;50.040;18.400;2023-04-24T07:35:00;10.35;;;3.88;;
74510;SDS011;62991;50.040;18.400;2023-04-24T07:38:01;8.07;;;3.95;;
74510;SDS011;62991;50.040;18.400;2023-04-24T07:41:02;6.43;;;3.50;;
74510;SDS011;62991;50.040;18.400;2023-04-24T07:44:02;8.88;;;4.10;;
74510;SDS011;62991;50.040;18.400;2023-04-24T07:47:03;7.03;;;3.40;;
74510;SDS011;62991;50.040;18.400;2023-04-24T07:50:04;7.95;;;3.85;;
74510;SDS011;62991;50.040;18.400;2023-04-24T07:53:05;6.22;;;3.38;;
74510;SDS011;62991;50.040;18.400;2023-04-24T07:56:06;7.35;;;3.90;;
74510;SDS011;62991;50.040;18.400;2023-04-24T07:59:07;6.25;;;3.50;;
74510;SDS011;62991;50.040;18.400;2023-04-24T08:02:08;10.32;;;4.20;;
74510;SDS011;62991;50.040;18.400;2023-04-24T08:05:09;8.00;;;3.67;;
74510;SDS011;62991;50.040;18.400;2023-04-24T08:08:10;8.25;;;3.97;;
74510;SDS011;62991;50.040;18.400;2023-04-24T08:11:11;8.55;;;4.00;;
74510;SDS011;62991;50.040;18.400;2023-04-24T08:14:11;7.32;;;3.83;;
74510;SDS011;62991;50.040;18.400;2023-04-24T08:17:13;8.50;;;4.10;;
74510;SDS011;62991;50.040;18.400;2023-04-24T08:20:13;6.43;;;3.25;;
74510;SDS011;62991;50.040;18.400;2023-04-24T08:23:14;8.77;;;3.90;;
74510;SDS011;62991;50.040;18.400;2023-04-24T08:26:16;9.00;;;3.95;;
74510;SDS011;62991;50.040;18.400;2023-04-24T08:29:16;7.40;;;4.20;;
74510;SDS011;62991;50.040;18.400;2023-04-24T08:32:17;10.23;;;3.85;;
74510;SDS011;62991;50.040;18.400;2023-04-24T08:35:18;6.63;;;3.75;;
74510;SDS011;62991;50.040;18.400;2023-04-24T08:38:19;6.20;;;3.28;;
74510;SDS011;62991;50.040;18.400;2023-04-24T08:41:20;8.10;;;3.67;;
74510;SDS011;62991;50.040;18.400;2023-04-24T08:44:22;8.10;;;4.30;;
74510;SDS011;62991;50.040;18.400;2023-04-24T08:47:23;7.72;;;3.47;;
74510;SDS011;62991;50.040;18.400;2023-04-24T08:50:25;5.20;;;2.97;;
74510;SDS011;62991;50.040;18.400;2023-04-24T08:53:26;6.50;;;3.25;;
74510;SDS011;62991;50.040;18.400;2023-04-24T08:56:27;6.65;;;3.10;;
74510;SDS011;62991;50.040;18.400;2023-04-24T08:59:29;6.45;;;3.05;;
74510;SDS011;62991;50.040;18.400;2023-04-24T09:02:30;7.05;;;3.38;;
74510;SDS011;62991;50.040;18.400;2023-04-24T09:05:32;8.40;;;3.88;;
74510;SDS011;62991;50.040;18.400;2023-04-24T09:08:33;5.03;;;3.22;;
74510;SDS011;62991;50.040;18.400;2023-04-24T09:11:35;8.48;;;4.13;;
74510;SDS011;62991;50.040;18.400;2023-04-24T09:14:37;7.45;;;4.13;;
74510;SDS011;62991;50.040;18.400;2023-04-24T09:17:43;6.68;;;3.45;;
74510;SDS011;62991;50.040;18.400;2023-04-24T09:24:05;11.05;;;4.38;;
74510;SDS011;62991;50.040;18.400;2023-04-24T09:27:07;7.35;;;3.53;;
74510;SDS011;62991;50.040;18.400;2023-04-24T09:30:11;5.10;;;3.08;;
74510;SDS011;62991;50.040;18.400;2023-04-24T09:33:12;5.53;;;3.67;;
74510;SDS011;62991;50.040;18.400;2023-04-24T09:36:17;6.82;;;3.63;;
74510;SDS011;62991;50.040;18.400;2023-04-24T09:39:18;7.97;;;4.07;;
74510;SDS011;62991;50.040;18.400;2023-04-24T09:42:22;7.53;;;3.90;;
74510;SDS011;62991;50.040;18.400;2023-04-24T09:45:35;5.88;;;3.60;;
74510;SDS011;62991;50.040;18.400;2023-04-24T09:48:37;6.80;;;3.20;;
74510;SDS011;62991;50.040;18.400;2023-04-24T09:51:38;8.98;;;4.63;;
74510;SDS011;62991;50.040;18.400;2023-04-24T09:54:39;6.72;;;3.60;;
74510;SDS011;62991;50.040;18.400;2023-04-24T09:57:49;7.45;;;3.50;;
74510;SDS011;62991;50.040;18.400;2023-04-24T10:00:55;13.93;;;4.03;;
74510;SDS011;62991;50.040;18.400;2023-04-24T10:03:56;7.72;;;2.83;;
74510;SDS011;62991;50.040;18.400;2023-04-24T10:06:57;4.93;;;2.88;;
74510;SDS011;62991;50.040;18.400;2023-04-24T10:09:58;7.03;;;3.08;;
74510;SDS011;62991;50.040;18.400;2023-04-24T10:13:00;8.10;;;3.45;;
74510;SDS011;62991;50.040;18.400;2023-04-24T10:16:01;8.30;;;3.92;;
74510;SDS011;62991;50.040;18.400;2023-04-24T10:19:03;7.28;;;3.72;;
74510;SDS011;62991;50.040;18.400;2023-04-24T10:22:04;6.70;;;3.53;;
74510;SDS011;62991;50.040;18.400;2023-04-24T10:25:05;4.90;;;3.22;;
74510;SDS011;62991;50.040;18.400;2023-04-24T10:28:07;9.70;;;3.70;;
74510;SDS011;62991;50.040;18.400;2023-04-24T10:31:09;5.38;;;3.40;;
74510;SDS011;62991;50.040;18.400;2023-04-24T10:34:11;5.88;;;3.53;;
74510;SDS011;62991;50.040;18.400;2023-04-24T10:37:12;7.07;;;3.30;;
74510;SDS011;62991;50.040;18.400;2023-04-24T10:40:18;8.02;;;3.88;;
74510;SDS011;62991;50.040;18.400;2023-04-24T10:43:24;6.85;;;3.65;;
74510;SDS011;62991;50.040;18.400;2023-04-24T10:46:25;7.40;;;3.55;;
74510;SDS011;62991;50.040;18.400;2023-04-24T10:49:30;9.82;;;3.53;;
74510;SDS011;62991;50.040;18.400;2023-04-24T10:52:44;19.42;;;9.65;;
74510;SDS011;62991;50.040;18.400;2023-04-24T10:55:47;11.93;;;4.53;;
74510;SDS011;62991;50.040;18.400;2023-04-24T10:58:50;8.15;;;4.63;;
74510;SDS011;62991;50.040;18.400;2023-04-24T11:01:53;8.93;;;3.65;;
74510;SDS011;62991;50.040;18.400;2023-04-24T11:04:57;7.15;;;4.10;;
74510;SDS011;62991;50.040;18.400;2023-04-24T11:11:15;6.22;;;4.55;;
74510;SDS011;62991;50.040;18.400;2023-04-24T11:14:16;7.82;;;3.63;;
74510;SDS011;62991;50.040;18.400;2023-04-24T11:20:47;8.30;;;4.00;;
74510;SDS011;62991;50.040;18.400;2023-04-24T11:23:48;7.13;;;3.90;;
74510;SDS011;62991;50.040;18.400;2023-04-24T11:26:50;6.40;;;3.95;;
74510;SDS011;62991;50.040;18.400;2023-04-24T11:32:57;9.13;;;3.70;;
74510;SDS011;62991;50.040;18.400;2023-04-24T11:36:05;13.20;;;5.63;;
74510;SDS011;62991;50.040;18.400;2023-04-24T11:39:06;8.50;;;3.85;;
74510;SDS011;62991;50.040;18.400;2023-04-24T11:42:07;9.15;;;4.22;;
74510;SDS011;62991;50.040;18.400;2023-04-24T11:45:14;27.85;;;10.38;;
74510;SDS011;62991;50.040;18.400;2023-04-24T11:48:20;18.08;;;8.32;;
74510;SDS011;62991;50.040;18.400;2023-04-24T11:51:21;8.43;;;4.50;;
74510;SDS011;62991;50.040;18.400;2023-04-24T11:54:23;21.40;;;9.93;;
74510;SDS011;62991;50.040;18.400;2023-04-24T11:57:24;23.83;;;13.18;;
74510;SDS011;62991;50.040;18.400;2023-04-24T12:00:29;37.80;;;19.35;;
74510;SDS011;62991;50.040;18.400;2023-04-24T12:03:34;22.05;;;10.98;;
74510;SDS011;62991;50.040;18.400;2023-04-24T12:06:35;14.85;;;6.80;;
74510;SDS011;62991;50.040;18.400;2023-04-24T12:09:48;15.15;;;8.07;;
74510;SDS011;62991;50.040;18.400;2023-04-24T12:12:57;14.23;;;6.95;;
74510;SDS011;62991;50.040;18.400;2023-04-24T12:15:58;12.93;;;7.00;;
74510;SDS011;62991;50.040;18.400;2023-04-24T12:19:01;14.65;;;6.60;;
74510;SDS011;62991;50.040;18.400;2023-04-24T12:22:03;12.13;;;5.47;;
74510;SDS011;62991;50.040;18.400;2023-04-24T12:25:05;10.18;;;5.40;;
74510;SDS011;62991;50.040;18.400;2023-04-24T12:31:07;10.27;;;4.82;;
74510;SDS011;62991;50.040;18.400;2023-04-24T12:34:26;8.82;;;4.43;;
74510;SDS011;62991;50.040;18.400;2023-04-24T12:37:31;11.18;;;4.30;;
74510;SDS011;62991;50.040;18.400;2023-04-24T12:40:33;9.73;;;4.45;;
74510;SDS011;62991;50.040;18.400;2023-04-24T12:43:34;11.65;;;5.07;;
74510;SDS011;62991;50.040;18.400;2023-04-24T12:46:35;8.57;;;4.63;;
74510;SDS011;62991;50.040;18.400;2023-04-24T12:49:36;12.30;;;4.70;;
74510;SDS011;62991;50.040;18.400;2023-04-24T12:52:37;7.65;;;4.20;;
74510;SDS011;62991;50.040;18.400;2023-04-24T12:55:38;8.35;;;4.30;;
74510;SDS011;62991;50.040;18.400;2023-04-24T12:58:40;9.77;;;4.85;;
74510;SDS011;62991;50.040;18.400;2023-04-24T13:01:40;14.57;;;5.55;;
74510;SDS011;62991;50.040;18.400;2023-04-24T13:04:41;9.98;;;4.97;;
74510;SDS011;62991;50.040;18.400;2023-04-24T13:07:42;9.73;;;4.93;;
74510;SDS011;62991;50.040;18.400;2023-04-24T13:10:43;8.68;;;4.55;;
74510;SDS011;62991;50.040;18.400;2023-04-24T13:13:43;9.07;;;4.60;;
74510;SDS011;62991;50.040;18.400;2023-04-24T13:16:44;18.60;;;6.63;;
74510;SDS011;62991;50.040;18.400;2023-04-24T13:19:45;10.15;;;4.97;;
74510;SDS011;62991;50.040;18.400;2023-04-24T13:22:45;10.77;;;5.63;;
74510;SDS011;62991;50.040;18.400;2023-04-24T13:25:46;10.13;;;6.15;;
74510;SDS011;62991;50.040;18.400;2023-04-24T13:28:47;11.18;;;5.38;;
74510;SDS011;62991;50.040;18.400;2023-04-24T13:31:49;8.82;;;5.18;;
74510;SDS011;62991;50.040;18.400;2023-04-24T13:34:51;8.85;;;4.68;;
74510;SDS011;62991;50.040;18.400;2023-04-24T13:37:52;9.15;;;4.55;;
74510;SDS011;62991;50.040;18.400;2023-04-24T13:40:52;7.95;;;4.32;;
74510;SDS011;62991;50.040;18.400;2023-04-24T13:43:53;8.82;;;4.82;;
74510;SDS011;62991;50.040;18.400;2023-04-24T13:46:54;9.95;;;5.28;;
74510;SDS011;62991;50.040;18.400;2023-04-24T13:49:56;9.38;;;4.65;;
74510;SDS011;62991;50.040;18.400;2023-04-24T13:52:57;8.63;;;4.85;;
74510;SDS011;62991;50.040;18.400;2023-04-24T13:56:00;8.38;;;4.57;;
74510;SDS011;62991;50.040;18.400;2023-04-24T13:59:00;7.82;;;4.70;;
74510;SDS011;62991;50.040;18.400;2023-04-24T14:02:01;8.82;;;4.05;;
74510;SDS011;62991;50.040;18.400;2023-04-24T14:05:02;10.15;;;4.70;;
74510;SDS011;62991;50.040;18.400;2023-04-24T14:08:03;8.88;;;5.20;;
74510;SDS011;62991;50.040;18.400;2023-04-24T14:11:04;9.10;;;5.00;;
74510;SDS011;62991;50.040;18.400;2023-04-24T14:14:05;7.57;;;4.90;;
74510;SDS011;62991;50.040;18.400;2023-04-24T14:17:05;11.35;;;4.95;;
74510;SDS011;62991;50.040;18.400;2023-04-24T14:20:06;10.32;;;4.95;;
74510;SDS011;62991;50.040;18.400;2023-04-24T14:23:08;8.85;;;5.20;;
74510;SDS011;62991;50.040;18.400;2023-04-24T14:26:09;9.00;;;4.82;;
74510;SDS011;62991;50.040;18.400;2023-04-24T14:29:10;7.82;;;4.65;;
74510;SDS011;62991;50.040;18.400;2023-04-24T14:32:11;9.57;;;4.97;;
74510;SDS011;62991;50.040;18.400;2023-04-24T14:35:11;12.60;;;5.25;;
74510;SDS011;62991;50.040;18.400;2023-04-24T14:38:12;11.52;;;5.80;;
74510;SDS011;62991;50.040;18.400;2023-04-24T14:41:13;10.52;;;5.68;;
74510;SDS011;62991;50.040;18.400;2023-04-24T14:44:13;11.80;;;5.40;;
74510;SDS011;62991;50.040;18.400;2023-04-24T14:47:14;9.02;;;5.03;;
74510;SDS011;62991;50.040;18.400;2023-04-24T14:50:17;7.88;;;4.22;;
74510;SDS011;62991;50.040;18.400;2023-04-24T14:53:18;10.48;;;5.13;;
74510;SDS011;62991;50.040;18.400;2023-04-24T14:56:18;8.88;;;4.80;;
74510;SDS011;62991;50.040;18.400;2023-04-24T14:59:19;12.75;;;5.72;;
74510;SDS011;62991;50.040;18.400;2023-04-24T15:02:20;11.95;;;5.70;;
74510;SDS011;62991;50.040;18.400;2023-04-24T15:05:20;12.10;;;6.50;;
74510;SDS011;62991;50.040;18.400;2023-04-24T15:08:21;19.05;;;8.30;;
74510;SDS011;62991;50.040;18.400;2023-04-24T15:11:22;23.58;;;10.32;;
74510;SDS011;62991;50.040;18.400;2023-04-24T15:14:23;20.08;;;9.65;;
74510;SDS011;62991;50.040;18.400;2023-04-24T15:17:24;20.50;;;8.57;;
74510;SDS011;62991;50.040;18.400;2023-04-24T15:20:25;16.35;;;7.72;;
74510;SDS011;62991;50.040;18.400;2023-04-24T15:23:25;13.45;;;6.47;;
74510;SDS011;62991;50.040;18.400;2023-04-24T15:26:26;10.52;;;5.32;;
74510;SDS011;62991;50.040;18.400;2023-04-24T15:29:27;10.95;;;5.60;;
74510;SDS011;62991;50.040;18.400;2023-04-24T15:32:28;9.75;;;5.45;;
74510;SDS011;62991;50.040;18.400;2023-04-24T15:35:29;10.40;;;5.63;;
74510;SDS011;62991;50.040;18.400;2023-04-24T15:38:30;9.70;;;4.70;;
74510;SDS011;62991;50.040;18.400;2023-04-24T15:41:31;11.50;;;5.10;;
74510;SDS011;62991;50.040;18.400;2023-04-24T15:44:31;11.82;;;5.53;;
74510;SDS011;62991;50.040;18.400;2023-04-24T15:47:32;17.20;;;8.05;;
74510;SDS011;62991;50.040;18.400;2023-04-24T15:50:33;21.23;;;8.60;;
74510;SDS011;62991;50.040;18.400;2023-04-24T15:53:34;24.02;;;9.00;;
74510;SDS011;62991;50.040;18.400;2023-04-24T15:56:34;18.52;;;7.90;;
74510;SDS011;62991;50.040;18.400;2023-04-24T15:59:36;16.17;;;8.05;;
74510;SDS011;62991;50.040;18.400;2023-04-24T16:02:36;19.08;;;9.73;;
74510;SDS011;62991;50.040;18.400;2023-04-24T16:05:37;15.13;;;7.65;;
74510;SDS011;62991;50.040;18.400;2023-04-24T16:08:38;23.40;;;9.75;;
74510;SDS011;62991;50.040;18.400;2023-04-24T16:11:39;22.50;;;10.13;;
74510;SDS011;62991;50.040;18.400;2023-04-24T16:14:40;17.95;;;8.10;;
74510;SDS011;62991;50.040;18.400;2023-04-24T16:17:41;17.27;;;9.30;;
74510;SDS011;62991;50.040;18.400;2023-04-24T16:20:42;16.95;;;8.55;;
74510;SDS011;62991;50.040;18.400;2023-04-24T16:23:42;16.60;;;7.75;;
74510;SDS011;62991;50.040;18.400;2023-04-24T16:26:43;21.20;;;8.82;;
74510;SDS011;62991;50.040;18.400;2023-04-24T16:29:44;37.03;;;15.30;;
74510;SDS011;62991;50.040;18.400;2023-04-24T16:32:45;44.10;;;16.15;;
74510;SDS011;62991;50.040;18.400;2023-04-24T16:35:45;24.75;;;9.35;;
74510;SDS011;62991;50.040;18.400;2023-04-24T16:38:46;23.80;;;9.85;;
74510;SDS011;62991;50.040;18.400;2023-04-24T16:41:48;17.13;;;8.32;;
74510;SDS011;62991;50.040;18.400;2023-04-24T16:44:49;21.08;;;11.07;;
74510;SDS011;62991;50.040;18.400;2023-04-24T16:47:50;24.88;;;10.80;;
74510;SDS011;62991;50.040;18.400;2023-04-24T16:50:50;21.63;;;10.13;;
74510;SDS011;62991;50.040;18.400;2023-04-24T16:53:51;24.08;;;10.63;;
74510;SDS011;62991;50.040;18.400;2023-04-24T16:56:52;34.13;;;13.77;;
74510;SDS011;62991;50.040;18.400;2023-04-24T16:59:53;29.85;;;13.57;;
74510;SDS011;62991;50.040;18.400;2023-04-24T17:02:54;30.25;;;12.27;;
74510;SDS011;62991;50.040;18.400;2023-04-24T17:05:54;23.65;;;10.68;;
74510;SDS011;62991;50.040;18.400;2023-04-24T17:08:55;25.90;;;12.13;;
74510;SDS011;62991;50.040;18.400;2023-04-24T17:11:57;27.55;;;11.77;;
74510;SDS011;62991;50.040;18.400;2023-04-24T17:14:57;20.30;;;10.23;;
74510;SDS011;62991;50.040;18.400;2023-04-24T17:17:58;28.77;;;12.93;;
74510;SDS011;62991;50.040;18.400;2023-04-24T17:20:59;25.20;;;11.05;;
74510;SDS011;62991;50.040;18.400;2023-04-24T17:24:00;24.55;;;12.02;;
74510;SDS011;62991;50.040;18.400;2023-04-24T17:27:00;25.38;;;12.20;;
74510;SDS011;62991;50.040;18.400;2023-04-24T17:30:02;25.35;;;11.85;;
74510;SDS011;62991;50.040;18.400;2023-04-24T17:33:03;27.40;;;12.27;;
74510;SDS011;62991;50.040;18.400;2023-04-24T17:36:03;32.40;;;13.57;;
74510;SDS011;62991;50.040;18.400;2023-04-24T17:39:05;23.90;;;10.13;;
74510;SDS011;62991;50.040;18.400;2023-04-24T17:42:08;26.80;;;11.57;;
74510;SDS011;62991;50.040;18.400;2023-04-24T17:45:09;25.27;;;10.32;;
74510;SDS011;62991;50.040;18.400;2023-04-24T17:48:11;30.67;;;13.77;;
74510;SDS011;62991;50.040;18.400;2023-04-24T17:51:12;31.25;;;12.02;;
74510;SDS011;62991;50.040;18.400;2023-04-24T17:54:13;27.10;;;11.85;;
74510;SDS011;62991;50.040;18.400;2023-04-24T17:57:14;28.58;;;12.77;;
74510;SDS011;62991;50.040;18.400;2023-04-24T18:00:15;23.60;;;11.18;;
74510;SDS011;62991;50.040;18.400;2023-04-24T18:03:16;26.77;;;12.93;;
74510;SDS011;62991;50.040;18.400;2023-04-24T18:06:16;31.73;;;15.18;;